Time;durP1;ratioP1;P1;durP2;ratioP2;P2;SDS_P1;SDS_P2;PMS_P1;PMS_P2;Temp;Humidity;BMP_temperature;BMP_pressure;BME280_temperature;BME280_humidity;BME280_pressure;Samples;Min_cycle;Max_cycle;Signal;HPM_P1;HPM_P2
2024/01/18 14:26:18;;;;;;;0.88;0.38;;;;;;;17.70;45.47;99943.97;20996654;27;21263;-65
2024/01/18 14:36:20;;;;;;;0.50;0.30;;;;;;;17.85;45.33;99975.66;20924526;27;20054;-66
2024/01/18 14:46:22;;;;;;;1.80;0.60;;;;;;;17.99;44.87;99999.31;20833354;28;20454;-64
2024/01/18 14:56:24;;;;;;;0.90;0.57;;;;;;;18.04;44.58;100001.56;20894425;28;20037;-65
2024/01/18 15:06:26;;;;;;;0.60;0.60;;;;;;;18.03;44.75;100033.03;20866987;28;20048;-62
2024/01/18 15:16:27;;;;;;;0.65;0.38;;;;;;;17.96;44.83;100053.50;20867697;28;20055;-62
2024/01/18 15:26:29;;;;;;;0.73;0.38;;;;;;;17.95;44.38;100065.25;20840738;28;20045;-62
2024/01/18 15:36:33;;;;;;;0.70;0.38;;;;;;;18.02;44.30;100087.91;20836101;28;20489;-63
2024/01/18 15:46:35;;;;;;;0.65;0.30;;;;;;;17.99;43.96;100117.81;20809822;28;20132;-64
2024/01/18 15:56:36;;;;;;;1.20;0.38;;;;;;;17.98;43.56;100132.28;20822976;28;20061;-62
2024/01/18 16:06:40;;;;;;;0.50;0.30;;;;;;;17.96;43.35;100155.81;20822654;28;20497;-65
2024/01/18 16:16:42;;;;;;;0.88;0.45;;;;;;;17.94;43.41;100177.53;20796755;28;20057;-63
2024/01/18 16:26:44;;;;;;;1.45;0.40;;;;;;;17.78;43.62;100191.69;20809583;28;20053;-63
2024/01/18 16:36:46;;;;;;;0.30;0.30;;;;;;;17.59;44.75;100224.97;20802803;28;20056;-63
2024/01/18 16:46:48;;;;;;;0.73;0.40;;;;;;;17.44;44.63;100239.91;20800784;28;20052;-65
2024/01/18 16:56:50;;;;;;;0.63;0.50;;;;;;;17.40;44.89;100258.19;20805237;28;20050;-66
2024/01/18 17:06:52;;;;;;;1.38;0.43;;;;;;;17.33;44.86;100257.09;20802614;28;20041;-66
2024/01/18 17:16:57;;;;;;;0.60;0.40;;;;;;;17.26;45.05;100272.97;20808813;28;20441;-65
2024/01/18 17:26:59;;;;;;;0.63;0.40;;;;;;;17.19;45.75;100291.53;20778569;28;20069;-65
2024/01/18 17:37:00;;;;;;;6.82;1.65;;;;;;;17.16;46.10;100305.28;20787116;28;20612;-65
2024/01/18 17:47:02;;;;;;;6.00;1.40;;;;;;;17.13;47.60;100324.41;20799551;28;20084;-63
2024/01/18 17:57:08;;;;;;;8.65;1.67;;;;;;;17.20;51.05;100330.91;20790143;28;20409;-64
2024/01/18 18:07:09;;;;;;;3.58;1.17;;;;;;;17.22;50.67;100350.44;20779722;28;20049;-61
2024/01/18 18:17:11;;;;;;;5.28;1.45;;;;;;;17.23;51.03;100360.22;20769131;28;20045;-63
2024/01/18 18:27:13;;;;;;;2.75;0.90;;;;;;;17.18;50.35;100367.84;20773873;28;20417;-61
2024/01/18 18:37:15;;;;;;;2.70;1.20;;;;;;;17.20;49.92;100371.25;20773394;28;20057;-65
2024/01/18 18:47:21;;;;;;;2.20;0.90;;;;;;;17.42;48.69;100379.13;20775751;28;20071;-64
2024/01/18 18:57:23;;;;;;;1.98;0.80;;;;;;;17.51;48.03;100406.00;20778946;28;20190;-65
2024/01/18 19:07:24;;;;;;;2.90;1.30;;;;;;;17.44;47.67;100393.28;20782244;28;20267;-65
2024/01/18 19:17:26;;;;;;;2.65;1.25;;;;;;;17.53;47.43;100430.94;20781604;28;20081;-66
2024/01/18 19:27:28;;;;;;;2.92;1.35;;;;;;;17.51;47.12;100448.25;20790114;28;20049;-64
2024/01/18 19:37:31;;;;;;;1.83;1.25;;;;;;;17.53;46.85;100470.47;20786707;28;20232;-64
2024/01/18 19:47:33;;;;;;;2.28;1.45;;;;;;;17.50;46.18;100482.38;20778491;28;20049;-64
2024/01/18 19:57:35;;;;;;;2.30;1.30;;;;;;;17.45;46.33;100492.72;20786707;28;20053;-63
2024/01/18 20:07:42;;;;;;;3.40;1.70;;;;;;;17.45;46.07;100513.38;20785562;28;20584;-64
2024/01/18 20:17:48;;;;;;;3.90;1.90;;;;;;;17.41;45.82;100537.06;20779715;28;20053;-63
2024/01/18 20:27:50;;;;;;;5.00;2.10;;;;;;;17.37;45.58;100538.34;20780306;28;20049;-63
2024/01/18 20:37:52;;;;;;;4.32;1.90;;;;;;;17.35;45.52;100551.06;20777730;28;20091;-62
2024/01/18 20:47:54;;;;;;;3.25;1.80;;;;;;;17.30;45.52;100567.63;20780853;28;20046;-63
2024/01/18 20:57:56;;;;;;;3.40;1.98;;;;;;;17.30;45.40;100601.78;20775696;28;20049;-64
2024/01/18 21:07:58;;;;;;;4.28;2.00;;;;;;;17.31;45.40;100617.75;20807805;28;20551;-62
2024/01/18 21:18:00;;;;;;;4.65;2.38;;;;;;;17.24;45.51;100570.88;20793929;28;20052;-63
2024/01/18 21:28:02;;;;;;;5.32;1.70;;;;;;;17.02;45.44;100593.50;20827639;28;20057;-63
2024/01/18 21:38:04;;;;;;;6.25;2.65;;;;;;;17.06;46.32;100632.56;20811038;28;20513;-63
2024/01/18 21:48:06;;;;;;;4.30;2.03;;;;;;;17.00;47.26;100619.69;20817016;28;21069;-62
2024/01/18 21:58:08;;;;;;;3.53;1.88;;;;;;;16.91;47.49;100632.06;20825909;28;20476;-63
2024/01/18 22:08:10;;;;;;;2.88;1.50;;;;;;;16.87;47.13;100647.66;20806157;28;20041;-62
2024/01/18 22:18:12;;;;;;;2.50;1.20;;;;;;;16.86;46.88;100654.00;20819873;28;20148;-63
2024/01/18 22:28:14;;;;;;;2.63;0.90;;;;;;;16.83;46.55;100665.03;20827781;28;20045;-62
2024/01/18 22:38:16;;;;;;;2.47;1.13;;;;;;;16.78;46.16;100665.44;20836348;28;20049;-63
2024/01/18 22:48:18;;;;;;;1.83;1.20;;;;;;;16.75;45.82;100664.84;20833086;28;20048;-63
2024/01/18 22:58:20;;;;;;;1.63;1.13;;;;;;;16.71;45.41;100674.16;20862127;28;20064;-63
2024/01/18 23:08:22;;;;;;;1.88;1.00;;;;;;;16.62;45.28;100687.41;20861019;28;20199;-64
2024/01/18 23:18:24;;;;;;;1.67;0.90;;;;;;;16.54;44.98;100665.72;20837647;28;20053;-64
2024/01/18 23:28:26;;;;;;;2.55;0.95;;;;;;;16.42;44.83;100670.31;20844801;28;20053;-62
2024/01/18 23:38:28;;;;;;;2.08;1.10;;;;;;;16.52;44.45;100730.34;20884343;28;20727;-62
2024/01/18 23:48:29;;;;;;;2.08;0.90;;;;;;;16.51;44.42;100723.28;20838979;28;20044;-62
2024/01/18 23:58:31;;;;;;;1.60;1.23;;;;;;;16.51;44.18;100728.66;20857286;28;20104;-63
